Time;durP1;ratioP1;P1;durP2;ratioP2;P2;SDS_P1;SDS_P2;PMS_P1;PMS_P2;Temp;Humidity;BMP_temperature;BMP_pressure;BME280_temperature;BME280_humidity;BME280_pressure;Samples;Min_cycle;Max_cycle;Signal;HPM_P1;HPM_P2
2021/08/06 00:01:28;;;;;;;3.95;2.53;;;;;;;17.72;71.89;98656.19;4959919;28;20053;-63
2021/08/06 00:04:14;;;;;;;6.32;2.30;;;;;;;17.71;72.02;98651.88;4960078;28;20053;-64
2021/08/06 00:06:58;;;;;;;2.63;2.25;;;;;;;17.71;72.08;98651.88;4975019;28;20106;-63
2021/08/06 00:09:43;;;;;;;3.17;2.05;;;;;;;17.71;71.98;98647.50;4974930;28;20090;-64
2021/08/06 00:12:33;;;;;;;3.50;2.53;;;;;;;17.70;72.17;98647.53;4974886;28;20097;-62
2021/08/06 00:15:25;;;;;;;1.95;1.75;;;;;;;17.70;72.15;98647.53;4959925;28;20054;-62
2021/08/06 00:18:21;;;;;;;2.25;1.80;;;;;;;17.70;72.18;98652.78;4960367;28;20054;-61
2021/08/06 00:21:11;;;;;;;4.57;2.40;;;;;;;17.69;72.06;98640.59;4974968;28;20104;-62
2021/08/06 00:24:00;;;;;;;2.97;2.10;;;;;;;17.70;72.26;98639.69;4974659;28;20053;-61
2021/08/06 00:26:56;;;;;;;2.95;2.35;;;;;;;17.68;72.17;98641.50;4974287;28;20142;-61
2021/08/06 00:29:46;;;;;;;2.60;2.15;;;;;;;17.67;72.17;98642.44;4959808;28;20132;-61
2021/08/06 00:32:37;;;;;;;2.45;1.98;;;;;;;17.66;72.24;98636.31;4974886;28;20050;-61
2021/08/06 00:35:21;;;;;;;2.63;2.08;;;;;;;17.67;72.23;98639.81;4959929;28;20131;-63
2021/08/06 00:38:19;;;;;;;4.15;2.15;;;;;;;17.67;72.29;98634.56;4960162;28;20046;-61
2021/08/06 00:41:14;;;;;;;2.17;1.92;;;;;;;17.65;72.31;98632.00;4974296;28;20129;-61
2021/08/06 00:44:07;;;;;;;2.50;1.85;;;;;;;17.65;72.43;98630.25;4959786;28;20529;-62
2021/08/06 00:47:02;;;;;;;2.20;1.92;;;;;;;17.64;72.48;98627.66;4974255;28;20054;-62
2021/08/06 00:49:55;;;;;;;4.00;2.10;;;;;;;17.65;72.26;98630.25;4974348;28;20073;-61
2021/08/06 00:52:44;;;;;;;3.40;1.92;;;;;;;17.63;72.35;98634.69;4959813;28;20077;-61
2021/08/06 00:55:34;;;;;;;4.30;2.08;;;;;;;17.63;72.43;98625.94;4960128;28;20525;-62
2021/08/06 00:58:21;;;;;;;2.15;1.90;;;;;;;17.64;72.44;98628.53;4959829;28;20110;-62
2021/08/06 01:01:11;;;;;;;3.38;2.03;;;;;;;17.64;72.38;98625.03;4959740;28;20470;-62
2021/08/06 01:04:10;;;;;;;2.63;1.80;;;;;;;17.63;72.49;98616.34;4959953;28;20061;-62
2021/08/06 01:07:16;;;;;;;2.67;2.22;;;;;;;17.63;72.41;98624.19;4974578;28;20056;-61
2021/08/06 01:10:10;;;;;;;2.95;2.10;;;;;;;17.63;72.77;98621.56;4959410;28;20050;-61
2021/08/06 01:13:07;;;;;;;4.35;2.25;;;;;;;17.64;72.52;98619.81;4974127;28;20062;-63
2021/08/06 01:16:02;;;;;;;3.80;2.10;;;;;;;17.62;72.55;98617.25;4974366;28;20106;-61
2021/08/06 01:18:54;;;;;;;2.92;1.83;;;;;;;17.63;72.61;98618.97;4974269;28;20414;-63
2021/08/06 01:21:43;;;;;;;2.95;2.03;;;;;;;17.63;72.38;98605.88;4974450;28;20089;-62
2021/08/06 01:24:31;;;;;;;2.40;2.03;;;;;;;17.62;72.67;98619.88;4977118;28;20054;-62
2021/08/06 01:27:29;;;;;;;3.78;1.90;;;;;;;17.63;72.72;98620.72;4977923;28;20114;-63
2021/08/06 01:30:19;;;;;;;2.83;1.77;;;;;;;17.62;72.60;98617.25;4977183;28;20109;-63
2021/08/06 01:33:09;;;;;;;3.88;1.90;;;;;;;17.62;72.93;98621.63;4977492;28;20105;-62
2021/08/06 01:35:53;;;;;;;4.05;2.42;;;;;;;17.62;72.72;98617.25;4962949;28;20061;-63
2021/08/06 01:38:45;;;;;;;2.20;2.00;;;;;;;17.62;72.75;98613.75;4977707;28;20053;-63
2021/08/06 01:41:55;;;;;;;3.10;2.15;;;;;;;17.62;72.94;98621.63;4977616;28;20422;-63
2021/08/06 01:44:51;;;;;;;3.13;2.33;;;;;;;17.61;72.98;98609.44;4962620;28;20113;-63
2021/08/06 01:47:42;;;;;;;3.17;2.05;;;;;;;17.62;73.22;98616.38;4977535;28;20057;-63
2021/08/06 01:50:36;;;;;;;3.28;2.05;;;;;;;17.61;73.11;98606.81;4962776;28;20066;-63
2021/08/06 01:53:22;;;;;;;3.13;1.83;;;;;;;17.63;73.19;98605.00;4962180;28;20050;-61
2021/08/06 01:56:18;;;;;;;3.50;2.10;;;;;;;17.61;73.16;98599.81;4962150;28;20177;-63
2021/08/06 01:59:05;;;;;;;3.03;2.25;;;;;;;17.62;73.40;98592.81;4976900;28;20058;-61
2021/08/06 02:01:54;;;;;;;2.38;1.90;;;;;;;17.60;73.42;98587.63;4962066;28;20069;-61
2021/08/06 02:04:43;;;;;;;3.45;2.03;;;;;;;17.60;73.26;98585.00;4962408;28;20057;-61
2021/08/06 02:07:30;;;;;;;2.03;1.75;;;;;;;17.60;73.34;98576.28;4962329;28;20545;-61
2021/08/06 02:10:20;;;;;;;4.53;1.95;;;;;;;17.60;73.57;98586.75;4962400;28;20407;-62
2021/08/06 02:13:10;;;;;;;2.60;2.17;;;;;;;17.59;73.45;98585.06;4962512;28;20061;-62
2021/08/06 02:15:58;;;;;;;2.63;2.03;;;;;;;17.59;73.67;98591.16;4962156;28;20049;-61
2021/08/06 02:18:57;;;;;;;3.63;1.80;;;;;;;17.58;73.58;98578.97;4961783;28;20050;-62
2021/08/06 02:21:52;;;;;;;3.78;2.33;;;;;;;17.58;73.54;98581.59;4962159;28;20094;-61
2021/08/06 02:24:42;;;;;;;2.72;1.95;;;;;;;17.58;73.50;98575.50;4976170;28;20054;-61
2021/08/06 02:27:35;;;;;;;3.78;2.28;;;;;;;17.57;73.61;98579.88;4976229;28;20049;-61
2021/08/06 02:30:29;;;;;;;2.88;2.30;;;;;;;17.57;73.62;98568.56;4961675;28;20061;-61
2021/08/06 02:33:25;;;;;;;;;;;;;;;17.55;73.78;98565.13;4962160;28;20088;-61
2021/08/06 02:36:15;;;;;;;2.92;1.77;;;;;;;17.54;73.91;98577.34;4961656;28;20001;-62
2021/08/06 02:39:00;;;;;;;2.60;2.20;;;;;;;17.56;74.07;98569.47;4976141;28;20100;-61
2021/08/06 02:41:47;;;;;;;4.95;2.20;;;;;;;17.55;73.97;98573.84;4975718;28;20053;-61
2021/08/06 02:44:42;;;;;;;2.97;2.28;;;;;;;17.55;73.95;98567.75;4961849;28;20573;-61
2021/08/06 02:47:37;;;;;;;2.35;2.03;;;;;;;17.55;74.08;98559.91;4975972;28;20049;-63
2021/08/06 02:50:30;;;;;;;2.70;2.15;;;;;;;17.54;73.83;98551.16;4976140;28;20069;-63
2021/08/06 02:53:16;;;;;;;3.38;2.20;;;;;;;17.56;74.18;98559.00;4975728;28;20458;-63
2021/08/06 02:56:09;;;;;;;2.88;2.08;;;;;;;17.54;74.21;98556.41;4976081;28;20418;-63
2021/08/06 02:59:02;;;;;;;5.10;2.00;;;;;;;17.54;74.36;98553.78;4961633;28;20049;-63
2021/08/06 03:01:46;;;;;;;2.53;1.73;;;;;;;17.55;74.42;98559.91;4961507;28;20121;-62
2021/08/06 03:04:30;;;;;;;2.65;1.90;;;;;;;17.54;74.44;98559.03;4975623;28;20117;-62
2021/08/06 03:07:28;;;;;;;3.05;1.70;;;;;;;17.54;74.12;98560.81;4975647;28;20057;-63
2021/08/06 03:10:26;;;;;;;3.28;2.30;;;;;;;17.53;74.33;98549.47;4961243;28;20055;-62
2021/08/06 03:13:24;;;;;;;4.55;2.40;;;;;;;17.53;74.30;98552.06;4975339;28;20046;-63
2021/08/06 03:16:17;;;;;;;2.83;2.00;;;;;;;17.52;74.49;98546.91;4975268;28;20058;-62
2021/08/06 03:19:12;;;;;;;4.07;2.30;;;;;;;17.51;74.36;98548.69;4961142;28;20081;-62
2021/08/06 03:22:08;;;;;;;1.95;1.58;;;;;;;17.53;74.37;98553.84;4960846;28;20572;-64
2021/08/06 03:24:52;;;;;;;3.47;1.88;;;;;;;17.50;74.42;98542.56;4975181;28;20069;-63
2021/08/06 03:27:38;;;;;;;4.80;2.55;;;;;;;17.50;74.63;98533.88;4960525;28;20053;-63
2021/08/06 03:30:36;;;;;;;2.60;2.05;;;;;;;17.49;74.54;98526.94;4960837;28;20097;-63
2021/08/06 03:33:31;;;;;;;3.78;1.90;;;;;;;17.48;74.56;98539.16;4960463;28;20053;-61
2021/08/06 03:36:29;;;;;;;2.10;1.75;;;;;;;17.49;74.62;98532.16;4975015;28;20593;-62
2021/08/06 03:39:16;;;;;;;3.28;1.92;;;;;;;17.50;74.75;98531.25;4975557;28;20597;-63
2021/08/06 03:42:12;;;;;;;4.10;1.98;;;;;;;17.48;74.81;98533.06;4974770;28;20145;-61
2021/08/06 03:45:07;;;;;;;6.82;2.13;;;;;;;17.48;74.73;98539.16;4960564;28;20556;-61
2021/08/06 03:48:02;;;;;;;2.92;1.95;;;;;;;17.47;74.70;98550.53;4960803;28;20449;-62
2021/08/06 03:50:46;;;;;;;3.58;1.83;;;;;;;17.47;74.93;98544.47;4974518;28;20054;-63
2021/08/06 03:53:32;;;;;;;2.75;1.95;;;;;;;17.46;74.78;98548.81;4975081;28;20129;-63
2021/08/06 03:56:19;;;;;;;5.53;2.05;;;;;;;17.45;74.84;98551.50;4960300;28;20126;-62
2021/08/06 03:59:14;;;;;;;4.25;1.83;;;;;;;17.45;74.93;98554.13;4959797;28;20537;-63
2021/08/06 04:02:09;;;;;;;3.30;1.92;;;;;;;17.44;74.89;98547.19;4960164;28;20077;-62
2021/08/06 04:05:04;;;;;;;4.25;2.00;;;;;;;17.45;74.82;98547.13;4959805;28;20058;-63
2021/08/06 04:08:02;;;;;;;2.67;1.90;;;;;;;17.44;74.97;98553.25;4974634;28;20109;-62
2021/08/06 04:10:55;;;;;;;4.53;2.15;;;;;;;17.44;74.91;98562.91;4974599;28;20398;-63
2021/08/06 04:13:42;;;;;;;4.93;2.03;;;;;;;17.43;75.06;98554.19;4959763;28;20422;-62
2021/08/06 04:16:26;;;;;;;4.82;2.25;;;;;;;17.44;74.95;98557.66;4960425;28;20169;-62
2021/08/06 04:19:16;;;;;;;4.80;1.85;;;;;;;17.44;75.27;98565.50;4960085;28;20097;-62
2021/08/06 04:22:09;;;;;;;4.30;2.42;;;;;;;17.44;75.04;98565.50;4960283;28;20517;-63
2021/08/06 04:24:56;;;;;;;4.25;2.20;;;;;;;17.43;75.18;98558.56;4974649;28;20055;-63
2021/08/06 04:27:51;;;;;;;3.67;2.22;;;;;;;17.42;74.98;98568.19;4974674;28;20094;-61
2021/08/06 04:30:46;;;;;;;4.15;1.88;;;;;;;17.42;74.91;98569.94;4974482;28;20065;-63
2021/08/06 04:33:44;;;;;;;14.23;3.78;;;;;;;17.41;75.19;98573.47;4959945;28;20517;-63
2021/08/06 04:36:37;;;;;;;5.07;2.33;;;;;;;17.42;75.17;98580.44;4974349;28;20057;-63
2021/08/06 04:39:29;;;;;;;3.25;2.30;;;;;;;17.42;75.22;98578.69;4960190;28;20104;-63
2021/08/06 04:42:14;;;;;;;5.82;2.65;;;;;;;17.42;75.28;98583.03;4974507;28;20081;-63
2021/08/06 04:44:58;;;;;;;6.93;2.53;;;;;;;17.42;75.06;98581.28;4960089;28;20478;-63
2021/08/06 04:48:00;;;;;;;6.32;2.20;;;;;;;17.42;75.17;98578.69;4960023;28;20466;-63
2021/08/06 04:50:58;;;;;;;7.65;2.78;;;;;;;17.42;75.35;98583.91;4974092;28;20062;-63
2021/08/06 04:53:51;;;;;;;6.68;2.58;;;;;;;17.42;75.29;98583.03;4959524;28;20104;-63
2021/08/06 04:56:45;;;;;;;5.82;2.65;;;;;;;17.41;75.19;98581.34;4974546;28;20207;-63
2021/08/06 04:59:37;;;;;;;7.68;2.33;;;;;;;17.40;75.36;98575.25;4963432;28;20097;-63
2021/08/06 05:02:29;;;;;;;5.82;2.63;;;;;;;17.40;75.46;98580.50;4977612;28;20127;-63
2021/08/06 05:05:14;;;;;;;5.53;2.70;;;;;;;17.39;75.25;98573.53;4963219;28;20410;-63
2021/08/06 05:08:00;;;;;;;8.00;2.22;;;;;;;17.40;75.49;98582.25;4977433;28;20177;-63
2021/08/06 05:10:44;;;;;;;10.18;3.13;;;;;;;17.39;75.38;98581.41;4978247;28;20065;-64
2021/08/06 05:13:42;;;;;;;3.83;2.13;;;;;;;17.40;75.60;98583.09;4977877;28;20050;-62
2021/08/06 05:16:34;;;;;;;5.38;2.42;;;;;;;17.40;75.62;98596.19;4963402;28;20113;-62
2021/08/06 05:19:24;;;;;;;6.53;2.50;;;;;;;17.40;75.38;98584.84;4978055;28;20074;-64
2021/08/06 05:22:22;;;;;;;5.05;2.70;;;;;;;17.39;75.66;98591.88;4962956;28;20050;-62
2021/08/06 05:25:20;;;;;;;2.83;1.90;;;;;;;17.39;75.67;98591.88;4977479;28;20058;-62
2021/08/06 05:28:16;;;;;;;3.88;2.20;;;;;;;17.39;75.45;98588.38;4963284;28;20065;-62
2021/08/06 05:31:08;;;;;;;3.90;2.00;;;;;;;17.38;75.59;98595.41;4977515;28;20054;-62
2021/08/06 05:33:52;;;;;;;4.57;2.10;;;;;;;17.38;75.47;98592.78;4963023;28;20399;-62
2021/08/06 05:36:36;;;;;;;3.58;2.30;;;;;;;17.38;75.68;98603.25;4977509;28;20422;-62
2021/08/06 05:39:33;;;;;;;4.20;2.33;;;;;;;17.37;75.53;98606.78;4963015;28;20093;-63
2021/08/06 05:42:20;;;;;;;4.82;2.47;;;;;;;17.38;75.69;98595.41;4977100;28;20057;-63
2021/08/06 05:45:05;;;;;;;4.47;2.17;;;;;;;17.38;75.58;98598.00;4962704;28;20054;-63
2021/08/06 05:47:52;;;;;;;2.83;1.80;;;;;;;17.39;75.55;98601.47;4962822;28;20050;-62
2021/08/06 05:50:42;;;;;;;5.72;2.53;;;;;;;17.38;76.01;98605.88;4962665;28;20046;-63
2021/08/06 05:53:28;;;;;;;2.90;1.90;;;;;;;17.37;75.78;98606.78;4962356;28;20081;-63
2021/08/06 05:56:24;;;;;;;5.78;2.20;;;;;;;17.37;75.76;98604.16;4976657;28;20629;-63
2021/08/06 05:59:08;;;;;;;5.10;2.28;;;;;;;17.36;75.96;98605.06;4962751;28;20053;-64
2021/08/06 06:01:55;;;;;;;5.72;2.25;;;;;;;17.37;75.82;98608.53;4962534;28;20059;-63
2021/08/06 06:04:44;;;;;;;5.10;1.80;;;;;;;17.36;75.95;98607.69;4962402;28;20054;-64
2021/08/06 06:07:40;;;;;;;4.35;2.13;;;;;;;17.36;75.86;98612.91;4962180;28;20469;-63
2021/08/06 06:10:25;;;;;;;4.47;2.15;;;;;;;17.37;75.97;98637.31;4976836;28;20142;-63
2021/08/06 06:13:08;;;;;;;3.47;2.13;;;;;;;17.35;75.99;98642.63;4962137;28;20074;-62
2021/08/06 06:15:52;;;;;;;4.90;2.35;;;;;;;17.35;75.89;98646.13;4977075;28;20078;-63
2021/08/06 06:18:36;;;;;;;4.90;2.30;;;;;;;17.33;75.99;98653.16;4976795;28;20094;-62
2021/08/06 06:21:20;;;;;;;12.48;2.67;;;;;;;17.30;75.96;98648.03;4976744;28;20061;-63
2021/08/06 06:24:04;;;;;;;4.60;2.45;;;;;;;17.29;75.82;98651.56;4976185;28;20050;-63
2021/08/06 06:26:48;;;;;;;;;;;;;;;17.26;75.78;98656.03;4976586;28;20085;-62
2021/08/06 06:29:32;;;;;;;5.78;2.22;;;;;;;17.23;75.96;98651.75;4962146;28;19969;-62
2021/08/06 06:32:16;;;;;;;3.22;2.30;;;;;;;17.23;75.89;98656.97;4962143;28;20106;-63
2021/08/06 06:35:00;;;;;;;5.22;2.67;;;;;;;17.23;75.99;98659.59;4976304;28;20465;-61
2021/08/06 06:37:44;;;;;;;2.67;2.00;;;;;;;17.21;75.92;98658.78;4975927;28;20125;-61
2021/08/06 06:40:29;;;;;;;5.93;3.22;;;;;;;17.21;76.17;98656.19;4976275;28;20065;-61
2021/08/06 06:43:13;;;;;;;5.05;2.30;;;;;;;17.20;76.08;98655.34;4961723;28;20135;-61
2021/08/06 06:45:57;;;;;;;5.43;2.78;;;;;;;17.19;75.89;98655.41;4975844;28;20057;-61
2021/08/06 06:48:41;;;;;;;5.70;2.15;;;;;;;17.20;75.64;98659.72;4976250;28;20114;-62
2021/08/06 06:51:25;;;;;;;6.15;2.38;;;;;;;17.18;76.10;98665.00;4961268;28;20053;-61
2021/08/06 06:54:14;;;;;;;3.97;2.70;;;;;;;17.17;75.94;98657.22;4975743;28;20050;-62
2021/08/06 06:56:58;;;;;;;4.30;2.45;;;;;;;17.17;76.01;98665.91;4975761;28;20106;-61
2021/08/06 06:59:42;;;;;;;5.13;2.20;;;;;;;17.17;76.08;98665.91;4975643;28;20576;-62
2021/08/06 07:02:26;;;;;;;4.03;2.38;;;;;;;17.18;75.94;98669.38;4976316;28;20061;-61
2021/08/06 07:05:13;;;;;;;5.78;2.42;;;;;;;17.18;76.13;98661.53;4975320;28;20050;-62
2021/08/06 07:07:57;;;;;;;3.72;2.58;;;;;;;17.18;76.15;98667.63;4961026;28;20462;-63
2021/08/06 07:10:41;;;;;;;2.78;2.20;;;;;;;17.20;76.05;98671.03;4975476;28;20093;-63
2021/08/06 07:13:25;;;;;;;5.32;2.63;;;;;;;17.22;75.94;98672.75;4960753;28;20113;-63
2021/08/06 07:16:10;;;;;;;4.07;2.50;;;;;;;17.23;76.25;98677.09;4975692;28;20047;-63
2021/08/06 07:18:54;;;;;;;;;;;;;;;17.23;75.99;98671.84;4976312;28;20045;-62
2021/08/06 07:21:43;;;;;;;6.40;3.00;;;;;;;17.23;76.43;98664.84;4974941;28;19921;-63
2021/08/06 07:24:27;;;;;;;4.68;2.50;;;;;;;17.24;76.25;98673.56;4960982;28;20431;-63
2021/08/06 07:27:11;;;;;;;4.75;2.72;;;;;;;17.25;76.29;98670.88;4960801;28;20065;-62
2021/08/06 07:29:58;;;;;;;3.42;2.83;;;;;;;17.26;76.39;98669.97;4961123;28;20053;-63
2021/08/06 07:32:45;;;;;;;7.25;2.47;;;;;;;17.28;76.28;98676.03;4975189;28;20129;-62
2021/08/06 07:35:37;;;;;;;3.70;2.67;;;;;;;17.29;76.47;98676.84;4960352;28;20053;-63
2021/08/06 07:38:22;;;;;;;8.98;3.08;;;;;;;17.30;76.36;98681.19;4960538;28;20401;-62
2021/08/06 07:41:17;;;;;;;5.70;2.78;;;;;;;17.30;76.45;98689.91;4975396;28;20478;-63
2021/08/06 07:44:01;;;;;;;6.13;2.80;;;;;;;17.31;76.53;98683.78;4975155;28;20077;-62
2021/08/06 07:46:45;;;;;;;6.38;3.53;;;;;;;17.32;76.42;98679.38;4960735;28;20208;-62
2021/08/06 07:49:35;;;;;;;;;;;;;;;17.30;76.48;98683.81;4960937;28;20130;-61
2021/08/06 07:52:28;;;;;;;5.18;2.95;;;;;;;17.30;76.13;98687.31;4974579;28;19950;-61
2021/08/06 07:55:15;;;;;;;4.47;2.53;;;;;;;17.31;76.62;98694.25;4960350;28;20403;-61
2021/08/06 07:58:00;;;;;;;6.28;3.00;;;;;;;17.31;76.51;98691.63;4960818;28;20517;-62
2021/08/06 08:00:49;;;;;;;12.52;3.33;;;;;;;17.31;76.42;98686.41;4975163;28;20162;-62
2021/08/06 08:03:36;;;;;;;7.63;2.90;;;;;;;17.31;76.50;98689.00;4959775;28;20114;-62
2021/08/06 08:06:26;;;;;;;5.57;2.78;;;;;;;17.32;76.66;98690.72;4975020;28;20053;-61
2021/08/06 08:09:21;;;;;;;8.02;2.78;;;;;;;17.33;76.42;98683.72;4960529;28;20053;-62
2021/08/06 08:12:06;;;;;;;4.93;2.63;;;;;;;17.34;76.44;98695.91;4974301;28;20125;-63
2021/08/06 08:14:59;;;;;;;8.32;2.70;;;;;;;17.35;76.44;98700.22;4960110;28;20054;-63
2021/08/06 08:17:51;;;;;;;5.75;3.15;;;;;;;17.34;76.63;98720.34;4974977;28;20108;-63
2021/08/06 08:20:43;;;;;;;5.20;2.40;;;;;;;17.34;76.52;98722.97;4960179;28;20057;-61
2021/08/06 08:23:27;;;;;;;6.40;2.60;;;;;;;17.32;76.31;98727.38;4959876;28;20133;-62
2021/08/06 08:26:11;;;;;;;4.95;1.88;;;;;;;17.29;76.15;98721.38;4974512;28;20105;-63
2021/08/06 08:29:04;;;;;;;4.65;2.03;;;;;;;17.27;76.28;98726.66;4974674;28;20057;-61
2021/08/06 08:31:51;;;;;;;4.05;1.95;;;;;;;17.26;76.38;98735.44;4961198;28;20170;-61
2021/08/06 08:34:44;;;;;;;2.90;1.77;;;;;;;17.23;76.20;98725.06;4963992;28;20054;-62
2021/08/06 08:37:36;;;;;;;3.22;1.85;;;;;;;17.24;76.38;98737.22;4978530;28;20182;-61
2021/08/06 08:40:31;;;;;;;2.38;2.05;;;;;;;17.24;76.20;98731.16;4963870;28;20058;-62
2021/08/06 08:43:26;;;;;;;3.03;1.85;;;;;;;17.24;76.16;98729.38;4978247;28;20057;-62
2021/08/06 08:46:20;;;;;;;4.05;1.92;;;;;;;17.24;76.45;98731.16;4978472;28;20049;-62
2021/08/06 08:49:05;;;;;;;3.17;1.90;;;;;;;17.24;76.18;98739.84;4978679;28;20054;-61
2021/08/06 08:52:02;;;;;;;2.00;1.55;;;;;;;17.24;76.23;98733.78;4963679;28;20525;-63
2021/08/06 08:54:57;;;;;;;3.85;2.10;;;;;;;17.22;75.90;98736.44;4978288;28;20053;-62
2021/08/06 08:57:47;;;;;;;2.55;2.22;;;;;;;17.23;76.44;98732.06;4977767;28;20049;-63
2021/08/06 09:00:42;;;;;;;5.68;1.83;;;;;;;17.23;76.12;98743.38;4963746;28;20053;-63
2021/08/06 09:03:48;;;;;;;4.05;2.22;;;;;;;17.23;76.11;98734.69;4963324;28;20061;-63
2021/08/06 09:06:48;;;;;;;3.42;2.17;;;;;;;17.24;76.30;98736.41;4963806;28;20050;-63
2021/08/06 09:09:32;;;;;;;4.28;2.08;;;;;;;17.24;76.34;98737.22;4977648;28;20081;-63
2021/08/06 09:12:19;;;;;;;2.42;1.80;;;;;;;17.27;76.31;98726.66;4977832;28;20050;-63
2021/08/06 09:15:03;;;;;;;3.83;2.15;;;;;;;17.30;76.23;98723.97;4977731;28;20110;-63
2021/08/06 09:17:48;;;;;;;3.42;2.13;;;;;;;17.34;76.19;98733.44;4977824;28;20122;-63
2021/08/06 09:20:41;;;;;;;3.55;1.80;;;;;;;17.35;76.29;98729.91;4963524;28;20057;-63
2021/08/06 09:23:42;;;;;;;3.00;2.10;;;;;;;17.39;76.23;98732.41;4962632;28;20113;-63
2021/08/06 09:26:44;;;;;;;4.90;2.65;;;;;;;17.41;76.19;98723.63;4962957;28;20088;-63
2021/08/06 09:29:46;;;;;;;2.63;2.10;;;;;;;17.45;76.22;98727.81;4962928;28;20065;-63
2021/08/06 09:32:54;;;;;;;4.60;2.05;;;;;;;17.48;76.14;98734.75;4962996;28;20571;-64
2021/08/06 09:36:07;;;;;;;3.90;2.22;;;;;;;17.49;76.41;98741.69;4962532;28;20054;-63
2021/08/06 09:39:13;;;;;;;2.78;2.10;;;;;;;17.54;76.33;98738.91;4977221;28;20061;-61
2021/08/06 09:42:16;;;;;;;6.35;2.50;;;;;;;17.57;76.39;98733.56;4977599;28;20458;-61
2021/08/06 09:45:21;;;;;;;5.07;2.38;;;;;;;17.59;76.01;98737.84;4962099;28;20057;-61
2021/08/06 09:48:24;;;;;;;6.20;2.45;;;;;;;17.58;76.11;98746.59;4976797;28;20061;-61
2021/08/06 09:51:25;;;;;;;4.40;2.50;;;;;;;17.58;76.25;98741.38;4962765;28;20513;-61
2021/08/06 09:54:30;;;;;;;4.45;2.22;;;;;;;17.56;75.93;98745.81;4977165;28;20179;-61
2021/08/06 09:57:14;;;;;;;4.03;2.17;;;;;;;17.55;75.85;98741.47;4962694;28;20130;-63
2021/08/06 10:00:00;;;;;;;3.20;2.10;;;;;;;17.55;76.08;98754.56;4977188;28;20042;-62
2021/08/06 10:02:44;;;;;;;4.90;3.05;;;;;;;17.53;75.89;98745.91;4977132;28;20054;-63
2021/08/06 10:05:45;;;;;;;4.97;2.38;;;;;;;17.53;76.16;98763.38;4962818;28;20101;-62
2021/08/06 10:08:41;;;;;;;6.13;2.80;;;;;;;17.50;75.92;98753.88;4976624;28;20104;-62
2021/08/06 10:11:39;;;;;;;3.88;2.53;;;;;;;17.50;75.85;98753.88;4976627;28;20054;-62
2021/08/06 10:14:37;;;;;;;3.47;1.98;;;;;;;17.50;76.17;98746.88;4976729;28;20049;-62
2021/08/06 10:17:34;;;;;;;4.50;2.25;;;;;;;17.50;75.78;98756.50;4976765;28;20081;-62
2021/08/06 10:20:33;;;;;;;5.00;2.75;;;;;;;17.50;75.85;98754.72;4976743;28;20167;-61
2021/08/06 10:23:17;;;;;;;3.92;2.13;;;;;;;17.53;75.97;98764.22;4976893;28;20159;-61
2021/08/06 10:26:03;;;;;;;6.15;2.75;;;;;;;17.51;76.04;98760.84;4976684;28;20046;-61
2021/08/06 10:28:47;;;;;;;4.35;2.08;;;;;;;17.51;75.89;98760.84;4962145;28;20049;-61
2021/08/06 10:31:31;;;;;;;;;;;;;;;17.52;75.80;98762.50;4977000;28;20518;-61
2021/08/06 10:34:15;;;;;;;5.03;2.22;;;;;;;17.52;75.68;98756.44;4977032;28;20017;-62
2021/08/06 10:36:59;;;;;;;5.55;2.85;;;;;;;17.51;75.92;98758.22;4976294;28;20097;-62
2021/08/06 10:39:43;;;;;;;3.70;2.17;;;;;;;17.53;75.90;98771.25;4976071;28;20466;-61
2021/08/06 10:42:39;;;;;;;4.00;2.10;;;;;;;17.51;75.65;98763.44;4961669;28;20054;-62
2021/08/06 10:45:51;;;;;;;3.88;2.40;;;;;;;17.51;75.71;98760.84;4961389;28;20069;-62
2021/08/06 10:48:53;;;;;;;6.90;2.10;;;;;;;17.50;75.76;98762.59;4960628;28;20426;-61
2021/08/06 10:51:43;;;;;;;2.88;1.85;;;;;;;17.49;75.48;98762.63;4976458;28;20085;-62
2021/08/06 10:54:41;;;;;;;3.58;1.95;;;;;;;17.48;75.34;98758.31;4976329;28;20085;-61
2021/08/06 10:57:39;;;;;;;3.50;2.70;;;;;;;17.48;75.65;98753.91;4976127;28;20054;-61
2021/08/06 11:00:42;;;;;;;3.13;1.90;;;;;;;17.48;75.60;98758.31;4975610;28;20049;-61
2021/08/06 11:03:49;;;;;;;4.03;1.80;;;;;;;17.49;75.39;98760.03;4960961;28;20475;-62
2021/08/06 11:06:54;;;;;;;4.78;2.78;;;;;;;17.50;75.46;98757.34;4975637;28;20569;-62
2021/08/06 11:09:44;;;;;;;6.00;1.70;;;;;;;17.53;75.44;98755.53;4961131;28;20133;-61
2021/08/06 11:12:31;;;;;;;3.15;2.15;;;;;;;17.54;75.34;98776.41;4960858;28;20046;-61
2021/08/06 11:15:15;;;;;;;2.95;2.20;;;;;;;17.54;75.49;98771.19;4960724;28;20474;-61
2021/08/06 11:18:01;;;;;;;4.15;2.30;;;;;;;17.54;75.28;98765.94;4975390;28;20046;-61
2021/08/06 11:20:58;;;;;;;5.60;2.85;;;;;;;17.54;75.19;98765.09;4961249;28;20065;-62
2021/08/06 11:23:54;;;;;;;6.43;2.05;;;;;;;17.54;75.16;98765.94;4960742;28;20042;-63
2021/08/06 11:26:51;;;;;;;4.95;2.17;;;;;;;17.53;75.17;98779.94;4975715;28;20045;-63
2021/08/06 11:29:36;;;;;;;2.35;1.77;;;;;;;17.53;74.97;98777.31;4975319;28;20138;-62
2021/08/06 11:32:30;;;;;;;;;;;;;;;17.52;75.03;98770.38;4975537;28;20113;-62
2021/08/06 11:35:31;;;;;;;4.07;2.25;;;;;;;17.53;74.80;98766.00;4959894;28;19968;-62
2021/08/06 11:38:26;;;;;;;4.30;2.03;;;;;;;17.55;74.93;98766.81;4975375;28;20057;-63
2021/08/06 11:41:11;;;;;;;3.28;1.75;;;;;;;17.58;75.08;98772.81;4974819;28;20077;-61
2021/08/06 11:43:56;;;;;;;3.40;2.30;;;;;;;17.60;75.08;98771.00;4975100;28;20465;-63
2021/08/06 11:46:50;;;;;;;3.45;1.73;;;;;;;17.62;74.92;98776.16;4975354;28;20045;-61
2021/08/06 11:49:55;;;;;;;4.63;1.90;;;;;;;17.63;75.00;98768.28;4960753;28;20049;-61
2021/08/06 11:52:55;;;;;;;2.25;1.92;;;;;;;17.67;75.14;98768.19;4960784;28;20044;-61
2021/08/06 11:55:39;;;;;;;4.15;1.70;;;;;;;17.70;74.99;98758.44;4974452;28;20045;-61
2021/08/06 11:58:36;;;;;;;;;;;;;;;17.70;74.80;98768.06;4975485;28;20088;-61
2021/08/06 12:01:29;;;;;;;4.53;1.80;;;;;;;17.69;74.90;98754.13;4960165;28;19984;-61
2021/08/06 12:04:13;;;;;;;5.70;1.90;;;;;;;17.71;74.90;98754.06;4960722;28;20525;-61
2021/08/06 12:06:57;;;;;;;3.00;1.90;;;;;;;17.72;74.81;98759.25;4960314;28;20525;-63
2021/08/06 12:09:45;;;;;;;4.55;1.80;;;;;;;17.74;74.94;98756.56;4975151;28;20046;-63
2021/08/06 12:12:34;;;;;;;2.70;2.00;;;;;;;17.75;74.57;98774.84;4974797;28;20069;-63
2021/08/06 12:15:24;;;;;;;4.25;1.73;;;;;;;17.76;74.84;98770.47;4959984;28;20050;-63
2021/08/06 12:18:22;;;;;;;3.33;1.60;;;;;;;17.77;74.69;98780.06;4959786;28;20081;-63
2021/08/06 12:21:14;;;;;;;2.38;1.45;;;;;;;17.76;74.68;98768.69;4960059;28;20541;-62
2021/08/06 12:24:07;;;;;;;4.10;1.75;;;;;;;17.76;74.48;98760.00;4960321;28;20057;-62
2021/08/06 12:26:53;;;;;;;2.53;1.58;;;;;;;17.76;74.71;98750.34;4960311;28;20517;-61
2021/08/06 12:29:39;;;;;;;4.10;1.60;;;;;;;17.78;74.55;98758.19;4960388;28;20510;-63
2021/08/06 12:32:33;;;;;;;3.53;1.52;;;;;;;17.78;74.28;98763.44;4959913;28;20050;-64
2021/08/06 12:35:21;;;;;;;;;;;;;;;17.77;74.46;98754.69;4959803;28;20081;-61
2021/08/06 12:38:22;;;;;;;5.10;1.67;;;;;;;17.76;74.49;98755.59;4959919;28;20388;-61
2021/08/06 12:41:23;;;;;;;11.18;2.00;;;;;;;17.76;74.64;98754.75;4960190;28;20462;-61
2021/08/06 12:44:16;;;;;;;2.63;1.65;;;;;;;17.76;74.35;98757.38;4960305;28;20054;-63
2021/08/06 12:47:02;;;;;;;3.97;1.60;;;;;;;17.75;74.43;98753.88;4974001;28;20042;-63
2021/08/06 12:50:09;;;;;;;6.20;2.17;;;;;;;17.75;74.26;98760.91;4959646;28;20058;-62
2021/08/06 12:53:09;;;;;;;2.38;1.70;;;;;;;17.74;74.27;98764.44;4974554;28;20089;-62
2021/08/06 12:56:07;;;;;;;2.22;1.60;;;;;;;17.73;74.15;98775.81;4959592;28;20053;-61
2021/08/06 12:59:17;;;;;;;4.40;1.60;;;;;;;17.72;74.17;98769.75;4959521;28;20053;-62
2021/08/06 13:02:19;;;;;;;3.58;1.77;;;;;;;17.74;74.34;98774.91;4959386;28;20502;-62
2021/08/06 13:05:14;;;;;;;1.60;1.42;;;;;;;17.77;74.56;98772.19;4959645;28;20485;-61
2021/08/06 13:08:23;;;;;;;2.40;1.90;;;;;;;17.76;74.36;98760.00;4974294;28;20070;-62
2021/08/06 13:11:24;;;;;;;2.10;1.33;;;;;;;17.77;74.32;98756.47;4959339;28;20525;-62
2021/08/06 13:14:19;;;;;;;1.80;1.33;;;;;;;17.79;74.16;98758.13;4959507;28;20077;-61
2021/08/06 13:17:16;;;;;;;2.55;1.77;;;;;;;17.79;74.24;98749.41;4959826;28;20085;-61
2021/08/06 13:20:15;;;;;;;2.95;1.50;;;;;;;17.80;73.78;98757.22;4962169;28;20508;-62
2021/08/06 13:23:03;;;;;;;4.07;1.63;;;;;;;17.82;74.05;98754.56;4977596;28;20097;-61
2021/08/06 13:26:04;;;;;;;2.60;1.60;;;;;;;17.83;74.09;98760.66;4963368;28;20101;-61
2021/08/06 13:28:54;;;;;;;4.05;1.42;;;;;;;17.83;73.90;98761.47;4963337;28;20054;-62